Time;durP1;ratioP1;P1;durP2;ratioP2;P2;SDS_P1;SDS_P2;PMS_P1;PMS_P2;Temp;Humidity;BMP_temperature;BMP_pressure;BME280_temperature;BME280_humidity;BME280_pressure;Samples;Min_cycle;Max_cycle;Signal;HPM_P1;HPM_P2
2022/03/05 00:00:45;;;;;;;26.15;15.07;;;;;;;-1.52;100.00;100878.06;5034574;28;20040;-63
2022/03/05 00:03:11;;;;;;;21.42;14.40;;;;;;;-1.53;100.00;100870.34;5034166;28;20025;-63
2022/03/05 00:05:37;;;;;;;22.90;14.95;;;;;;;-1.55;100.00;100870.34;5033989;28;20489;-63
2022/03/05 00:08:03;;;;;;;23.85;15.15;;;;;;;-1.58;100.00;100870.31;5035184;28;20033;-63
2022/03/05 00:10:28;;;;;;;23.35;14.73;;;;;;;-1.63;100.00;100874.59;5035073;28;20460;-63
2022/03/05 00:12:54;;;;;;;21.95;14.60;;;;;;;-1.63;100.00;100877.16;5035594;28;20021;-63
2022/03/05 00:15:20;;;;;;;25.45;15.10;;;;;;;-1.65;100.00;100881.44;5034380;28;20040;-63
2022/03/05 00:17:47;;;;;;;22.35;14.93;;;;;;;-1.68;100.00;100879.69;5033410;28;20415;-63
2022/03/05 00:20:13;;;;;;;21.55;14.05;;;;;;;-1.69;100.00;100882.28;5032746;28;20024;-63
2022/03/05 00:22:38;;;;;;;23.55;16.08;;;;;;;-1.68;100.00;100876.25;5032055;28;20536;-63
2022/03/05 00:25:04;;;;;;;27.13;14.98;;;;;;;-1.65;100.00;100865.97;5032426;28;20062;-63
2022/03/05 00:27:30;;;;;;;25.15;15.35;;;;;;;-1.62;100.00;100876.28;5035270;28;20031;-63
2022/03/05 00:29:55;;;;;;;23.88;15.70;;;;;;;-1.59;100.00;100872.03;5035786;28;20442;-63
2022/03/05 00:32:21;;;;;;;22.20;15.13;;;;;;;-1.57;100.00;100872.06;5035356;28;20087;-63
2022/03/05 00:34:47;;;;;;;23.13;14.70;;;;;;;-1.45;100.00;100879.00;5033805;28;20035;-63
2022/03/05 00:37:12;;;;;;;23.80;15.38;;;;;;;-1.49;100.00;100870.41;5032326;28;20108;-64
2022/03/05 00:39:37;;;;;;;29.15;17.42;;;;;;;-1.37;100.00;100880.75;5034867;28;20037;-63
2022/03/05 00:42:04;;;;;;;29.25;15.90;;;;;;;-1.30;100.00;100879.94;5034913;28;20033;-63
2022/03/05 00:44:30;;;;;;;27.60;16.80;;;;;;;-1.30;100.00;100869.63;5038073;28;20029;-63
2022/03/05 00:46:56;;;;;;;25.42;17.52;;;;;;;-1.18;100.00;100882.56;5036917;28;20090;-63
2022/03/05 00:49:21;;;;;;;27.35;16.52;;;;;;;-1.20;100.00;100880.84;5035057;28;20048;-64
2022/03/05 00:51:48;;;;;;;28.40;17.35;;;;;;;-1.21;100.00;100889.44;5033552;28;20567;-63
2022/03/05 00:54:13;;;;;;;27.08;16.73;;;;;;;-1.22;100.00;100883.44;5032722;28;20068;-63
2022/03/05 00:56:39;;;;;;;29.05;16.50;;;;;;;-1.23;100.00;100892.00;5032486;28;20132;-63
2022/03/05 00:59:04;;;;;;;32.63;18.08;;;;;;;-1.28;100.00;100883.38;5035687;28;20752;-63
2022/03/05 01:01:30;;;;;;;26.50;17.10;;;;;;;-1.29;100.00;100886.84;5038198;28;20060;-63
2022/03/05 01:03:56;;;;;;;31.38;17.25;;;;;;;-1.34;100.00;100887.63;5034899;28;20040;-63
2022/03/05 01:06:21;;;;;;;22.88;15.30;;;;;;;-1.36;100.00;100890.22;5033898;28;20060;-63
2022/03/05 01:08:46;;;;;;;25.80;16.85;;;;;;;-1.39;100.00;100890.22;5033645;28;20159;-63
2022/03/05 01:11:15;;;;;;;24.17;16.17;;;;;;;-1.43;100.00;100887.59;5032241;28;20086;-63
2022/03/05 01:13:42;;;;;;;27.63;17.30;;;;;;;-1.55;100.00;100878.06;5032831;28;20024;-63
2022/03/05 01:16:07;;;;;;;30.65;17.48;;;;;;;-1.57;100.00;100884.94;5032824;28;20040;-63
2022/03/05 01:18:32;;;;;;;27.13;17.52;;;;;;;-1.61;100.00;100878.91;5032714;28;20033;-63
2022/03/05 01:20:58;;;;;;;33.10;16.92;;;;;;;-1.65;100.00;100882.28;5032665;28;20110;-63
2022/03/05 01:23:23;;;;;;;30.60;16.83;;;;;;;-1.68;100.00;100883.97;5031372;28;20032;-63
2022/03/05 01:25:49;;;;;;;25.98;17.80;;;;;;;-1.74;100.00;100871.06;5034639;28;20155;-62
2022/03/05 01:28:14;;;;;;;30.30;17.63;;;;;;;-1.79;100.00;100877.91;5036562;28;20043;-63
2022/03/05 01:30:39;;;;;;;31.15;18.52;;;;;;;-1.85;100.00;100867.53;5036701;28;20040;-63
2022/03/05 01:33:05;;;;;;;28.40;18.10;;;;;;;-1.87;100.00;100885.56;5036631;28;20862;-63
2022/03/05 01:35:30;;;;;;;27.98;17.10;;;;;;;-1.92;100.00;100878.66;5037443;28;20078;-63
2022/03/05 01:37:56;;;;;;;36.55;18.23;;;;;;;-2.00;100.00;100877.75;5035472;28;20021;-63
2022/03/05 01:40:22;;;;;;;33.63;17.77;;;;;;;-2.04;100.00;100889.72;5034911;28;20083;-63
2022/03/05 01:42:48;;;;;;;26.58;16.50;;;;;;;-2.07;100.00;100874.25;5034808;28;20804;-63
2022/03/05 01:45:13;;;;;;;29.70;17.08;;;;;;;-2.11;100.00;100882.78;5035575;28;20032;-63
2022/03/05 01:47:39;;;;;;;25.83;17.55;;;;;;;-2.14;100.00;100885.34;5034345;28;20042;-63
2022/03/05 01:50:06;;;;;;;37.08;18.65;;;;;;;-2.19;100.00;100871.56;5033053;28;20049;-64
2022/03/05 01:52:31;;;;;;;27.73;19.35;;;;;;;-2.23;100.00;100880.97;5034878;28;20593;-63
2022/03/05 01:54:57;;;;;;;34.35;19.15;;;;;;;-2.29;100.00;100875.75;5032266;28;20025;-63
2022/03/05 01:57:22;;;;;;;37.33;20.10;;;;;;;-2.28;100.00;100874.94;5034481;28;20577;-63
2022/03/05 01:59:48;;;;;;;30.83;18.40;;;;;;;-2.45;100.00;100858.47;5038895;28;20029;-63
2022/03/05 02:02:14;;;;;;;31.90;19.92;;;;;;;-2.35;100.00;100875.72;5033713;28;20037;-63
2022/03/05 02:04:39;;;;;;;38.33;19.38;;;;;;;-2.31;100.00;100880.03;5038166;28;20057;-63
2022/03/05 02:07:04;;;;;;;28.60;18.35;;;;;;;-2.37;100.00;100884.28;5039645;28;20112;-63
2022/03/05 02:09:30;;;;;;;31.85;18.60;;;;;;;-2.43;100.00;100881.66;5013903;28;20086;-64
2022/03/05 02:11:55;;;;;;;27.67;18.67;;;;;;;-2.52;100.00;100878.97;5010541;28;20021;-63
2022/03/05 02:14:20;;;;;;;29.55;19.42;;;;;;;-2.52;100.00;100892.69;5009399;28;20913;-64
2022/03/05 02:16:46;;;;;;;34.90;21.73;;;;;;;-2.51;100.00;100886.72;5010842;28;20036;-63
2022/03/05 02:19:12;;;;;;;38.45;19.58;;;;;;;-2.57;100.00;100878.94;5010908;28;20755;-63
2022/03/05 02:21:38;;;;;;;34.42;21.80;;;;;;;-2.53;100.00;100880.66;5020092;28;20056;-63
2022/03/05 02:24:03;;;;;;;34.78;21.23;;;;;;;-2.53;100.00;100872.94;5042731;28;20037;-63
2022/03/05 02:26:29;;;;;;;36.08;21.90;;;;;;;-2.52;100.00;100866.97;5042947;28;20135;-64
2022/03/05 02:28:54;;;;;;;36.30;23.00;;;;;;;-2.52;100.00;100877.25;5043358;28;20028;-63
2022/03/05 02:31:20;;;;;;;33.90;21.45;;;;;;;-2.62;100.00;100871.16;5039726;28;20029;-63
2022/03/05 02:33:45;;;;;;;40.38;22.17;;;;;;;-2.58;100.00;100877.19;5042343;28;20028;-63
2022/03/05 02:36:11;;;;;;;32.03;21.02;;;;;;;-2.63;100.00;100878.84;5041462;28;20831;-63
2022/03/05 02:38:37;;;;;;;38.30;22.10;;;;;;;-2.66;100.00;100878.81;5039669;28;20033;-63
2022/03/05 02:41:03;;;;;;;33.72;21.98;;;;;;;-2.68;100.00;100871.09;5037609;28;20358;-63
2022/03/05 02:43:28;;;;;;;33.60;21.83;;;;;;;-2.72;100.00;100879.63;5038976;28;20212;-63
2022/03/05 02:45:54;;;;;;;31.80;20.95;;;;;;;-2.72;100.00;100878.75;5041090;28;20124;-63
2022/03/05 02:48:20;;;;;;;30.10;20.98;;;;;;;-2.78;100.00;100870.97;5040240;28;20029;-63
2022/03/05 02:50:47;;;;;;;38.20;23.77;;;;;;;-2.75;100.00;100873.59;5040424;28;20029;-63
2022/03/05 02:53:13;;;;;;;32.95;21.25;;;;;;;-2.74;100.00;100878.72;5036876;28;20043;-63
2022/03/05 02:55:39;;;;;;;36.60;23.88;;;;;;;-2.84;100.00;100869.19;5039348;28;20029;-63
2022/03/05 02:58:04;;;;;;;34.80;22.60;;;;;;;-2.86;100.00;100857.16;5039192;28;20045;-63
2022/03/05 03:00:30;;;;;;;35.85;20.65;;;;;;;-2.81;100.00;100876.09;5039874;28;20029;-63
2022/03/05 03:02:56;;;;;;;34.05;22.23;;;;;;;-2.88;100.00;100866.56;5040712;28;20656;-63
2022/03/05 03:05:21;;;;;;;38.05;23.05;;;;;;;-2.94;100.00;100875.06;5038068;28;20086;-63
2022/03/05 03:07:47;;;;;;;37.33;21.95;;;;;;;-2.98;100.00;100872.47;5037697;28;20068;-63
2022/03/05 03:10:13;;;;;;;36.35;22.83;;;;;;;-3.00;100.00;100871.56;5035915;28;20033;-63
2022/03/05 03:12:39;;;;;;;35.58;22.63;;;;;;;-3.03;100.00;100871.53;5067849;28;20029;-63
2022/03/05 03:15:06;;;;;;;35.55;22.80;;;;;;;-3.03;100.00;100877.53;5037300;28;20039;-63
2022/03/05 03:17:48;;;;;;;33.53;21.83;;;;;;;-2.99;100.00;100878.44;5034415;28;20769;-63
2022/03/05 03:20:22;;;;;;;40.00;22.25;;;;;;;-3.08;100.00;100874.91;5034748;28;20739;-63
2022/03/05 03:22:47;;;;;;;28.58;16.70;;;;;;;-3.08;100.00;100873.19;5037274;28;20033;-63
2022/03/05 03:25:13;;;;;;;36.40;22.27;;;;;;;-3.15;100.00;100877.38;5037662;28;20033;-64
2022/03/05 03:27:39;;;;;;;35.03;22.05;;;;;;;-3.18;100.00;100873.06;5039701;28;20733;-63
2022/03/05 03:30:06;;;;;;;35.55;23.60;;;;;;;-3.20;100.00;100879.03;5037641;28;20036;-63
2022/03/05 03:32:31;;;;;;;37.13;22.33;;;;;;;-3.23;100.00;100869.56;5036749;28;20028;-63
2022/03/05 03:34:57;;;;;;;44.85;23.52;;;;;;;-3.24;100.00;100872.13;5035058;28;20037;-63
2022/03/05 03:37:28;;;;;;;38.70;22.77;;;;;;;-3.28;100.00;100868.63;5033884;28;20035;-63
2022/03/05 03:39:54;;;;;;;42.38;23.05;;;;;;;-3.28;100.00;100865.25;5035227;28;20127;-63
2022/03/05 03:42:19;;;;;;;37.40;22.90;;;;;;;-3.29;100.00;100860.94;5035772;28;20447;-63
2022/03/05 03:44:45;;;;;;;36.47;23.77;;;;;;;-3.26;100.00;100863.53;5037439;28;20036;-63
2022/03/05 03:47:10;;;;;;;38.75;23.60;;;;;;;-3.24;100.00;100864.41;5033360;28;20486;-63
2022/03/05 03:49:35;;;;;;;33.92;22.92;;;;;;;-3.26;100.00;100869.53;5035681;28;20123;-64
2022/03/05 03:52:01;;;;;;;33.53;22.17;;;;;;;-3.32;100.00;100864.34;5033213;28;20025;-64
2022/03/05 03:54:26;;;;;;;38.65;23.05;;;;;;;-3.31;100.00;100867.78;5033748;28;20418;-64
2022/03/05 03:56:52;;;;;;;40.58;23.08;;;;;;;-3.33;100.00;100867.72;5030933;28;20044;-63
2022/03/05 03:59:17;;;;;;;36.25;22.35;;;;;;;-3.31;100.00;100867.78;5035123;28;20044;-63
2022/03/05 04:01:43;;;;;;;37.40;23.75;;;;;;;-3.42;100.00;100848.78;5035429;28;20040;-63
2022/03/05 04:04:08;;;;;;;47.97;24.77;;;;;;;-3.35;100.00;100863.44;5033007;28;20032;-63
2022/03/05 04:09:17;;;;;;;37.15;22.88;;;;;;;-3.43;100.00;100865.03;5031502;28;20043;-63
2022/03/05 04:11:43;;;;;;;36.47;22.75;;;;;;;-3.47;100.00;100864.13;5031911;28;20025;-64
2022/03/05 04:14:08;;;;;;;37.97;24.40;;;;;;;-3.51;100.00;100864.91;5034119;28;20051;-64
2022/03/05 04:16:33;;;;;;;39.63;23.75;;;;;;;-3.58;100.00;100868.22;5034419;28;20029;-63
2022/03/05 04:18:59;;;;;;;40.08;23.73;;;;;;;-3.61;100.00;100869.06;5035231;28;20122;-63
2022/03/05 04:21:24;;;;;;;39.30;23.15;;;;;;;-3.64;100.00;100873.28;5034592;28;20060;-63
2022/03/05 04:23:49;;;;;;;32.97;22.42;;;;;;;-3.66;100.00;100867.28;5033716;28;20904;-62
2022/03/05 04:26:15;;;;;;;33.70;22.17;;;;;;;-3.84;100.00;100849.88;5035712;28;20033;-63
2022/03/05 04:28:40;;;;;;;36.78;25.30;;;;;;;-3.79;100.00;100861.09;5035229;28;20021;-63
2022/03/05 04:31:06;;;;;;;36.85;22.75;;;;;;;-3.75;100.00;100867.16;5034933;28;20062;-63
2022/03/05 04:33:32;;;;;;;33.45;22.15;;;;;;;-3.74;100.00;100871.41;5034879;28;20036;-63
2022/03/05 04:35:58;;;;;;;39.45;24.48;;;;;;;-3.70;100.00;100881.75;5034683;28;20056;-63
2022/03/05 04:38:23;;;;;;;38.97;25.10;;;;;;;-3.65;100.00;100876.72;5035800;28;20136;-63
2022/03/05 04:40:48;;;;;;;38.10;24.15;;;;;;;-3.63;100.00;100877.59;5034310;28;20029;-63
2022/03/05 04:43:14;;;;;;;40.45;24.13;;;;;;;-3.66;100.00;100878.41;5033175;28;20551;-63
2022/03/05 04:45:40;;;;;;;38.70;23.48;;;;;;;-3.70;100.00;100875.75;5031245;28;20886;-63
2022/03/05 04:48:05;;;;;;;42.60;24.00;;;;;;;-3.69;100.00;100875.81;5031958;28;20108;-63
2022/03/05 04:50:31;;;;;;;36.08;24.23;;;;;;;-3.69;100.00;100873.22;5033338;28;20562;-63
2022/03/05 04:52:56;;;;;;;35.03;23.70;;;;;;;-3.81;100.00;100867.91;5033054;28;20021;-63
2022/03/05 04:55:22;;;;;;;36.95;23.60;;;;;;;-3.82;100.00;100878.16;5032295;28;20032;-63
2022/03/05 04:57:47;;;;;;;40.42;25.90;;;;;;;-3.85;100.00;100875.53;5032601;28;20086;-63
2022/03/05 05:00:13;;;;;;;39.25;23.92;;;;;;;-3.90;100.00;100869.47;5034506;28;20114;-63
2022/03/05 05:02:38;;;;;;;41.70;25.58;;;;;;;-3.82;100.00;100880.72;5034401;28;20042;-63
2022/03/05 05:05:05;;;;;;;34.42;22.88;;;;;;;-3.86;100.00;100876.38;5032743;28;20433;-63
2022/03/05 05:07:31;;;;;;;39.88;23.83;;;;;;;-3.87;100.00;100869.50;5034024;28;20063;-63
2022/03/05 05:09:56;;;;;;;37.58;24.23;;;;;;;-3.85;100.00;100873.81;5034267;28;20771;-63
2022/03/05 05:12:22;;;;;;;45.05;26.10;;;;;;;-3.85;100.00;100875.53;5035216;28;20039;-63
2022/03/05 05:14:48;;;;;;;53.42;27.80;;;;;;;-3.86;100.00;100884.94;5035549;28;20021;-63
2022/03/05 05:17:13;;;;;;;41.42;25.38;;;;;;;-3.88;100.00;100880.59;5035722;28;20447;-63
2022/03/05 05:19:39;;;;;;;40.72;25.63;;;;;;;-3.91;100.00;100880.56;5035589;28;20203;-63
2022/03/05 05:22:06;;;;;;;41.92;24.75;;;;;;;-3.93;100.00;100877.97;5034417;28;20044;-63
2022/03/05 05:24:33;;;;;;;40.88;25.38;;;;;;;-3.93;100.00;100885.69;5033495;28;20087;-63
2022/03/05 05:26:59;;;;;;;40.33;25.30;;;;;;;-3.95;100.00;100891.59;5035919;28;20071;-63
2022/03/05 05:29:25;;;;;;;42.13;25.80;;;;;;;-3.97;100.00;100896.72;5033836;28;20090;-63
2022/03/05 05:31:50;;;;;;;39.60;24.55;;;;;;;-3.98;100.00;100901.81;5035750;28;20037;-63
2022/03/05 05:34:16;;;;;;;38.45;24.73;;;;;;;-3.98;100.00;100895.00;5037270;28;20039;-63
2022/03/05 05:36:42;;;;;;;40.83;23.38;;;;;;;-3.99;100.00;100897.56;5039466;28;20752;-63
2022/03/05 05:39:09;;;;;;;38.67;22.60;;;;;;;-4.00;100.00;100906.06;5040163;28;20025;-63
2022/03/05 05:41:35;;;;;;;37.28;24.27;;;;;;;-3.99;100.00;100902.69;5040950;28;20415;-63
2022/03/05 05:44:02;;;;;;;37.22;24.48;;;;;;;-4.00;100.00;100906.06;5041694;28;20470;-63
2022/03/05 05:46:28;;;;;;;41.13;23.88;;;;;;;-4.01;100.00;100901.78;5041880;28;20028;-63
2022/03/05 05:48:54;;;;;;;35.28;21.88;;;;;;;-4.00;100.00;100913.78;5041744;28;20072;-63
2022/03/05 05:51:19;;;;;;;38.67;24.25;;;;;;;-4.01;100.00;100915.47;5040362;28;20092;-63
2022/03/05 05:53:45;;;;;;;35.65;22.85;;;;;;;-4.03;100.00;100918.84;5039711;28;20561;-63
2022/03/05 05:56:10;;;;;;;37.92;23.90;;;;;;;-4.12;100.00;100917.84;5036440;28;20135;-63
2022/03/05 05:58:36;;;;;;;34.75;22.23;;;;;;;-4.09;100.00;100926.47;5036521;28;20071;-62
2022/03/05 06:01:01;;;;;;;38.10;22.98;;;;;;;-4.10;100.00;100928.16;5037895;28;20032;-63
2022/03/05 06:03:27;;;;;;;37.40;23.08;;;;;;;-4.19;100.00;100921.16;5037928;28;20087;-63
2022/03/05 06:05:52;;;;;;;44.28;24.92;;;;;;;-4.13;100.00;100933.22;5035959;28;20106;-63
2022/03/05 06:08:18;;;;;;;35.00;23.02;;;;;;;-4.17;100.00;100924.63;5037850;28;20131;-63
2022/03/05 06:10:43;;;;;;;41.75;24.88;;;;;;;-4.13;100.00;100926.41;5037807;28;20090;-63
2022/03/05 06:13:09;;;;;;;38.15;24.85;;;;;;;-4.14;100.00;100923.81;5039736;28;20033;-63
2022/03/05 06:15:34;;;;;;;38.00;24.10;;;;;;;-4.14;100.00;100924.66;5037082;28;20458;-63
2022/03/05 06:17:59;;;;;;;42.65;25.67;;;;;;;-4.13;100.00;100922.97;5038356;28;20589;-64
2022/03/05 06:20:25;;;;;;;40.28;24.27;;;;;;;-4.09;100.00;100926.47;5037093;28;20043;-63
2022/03/05 06:22:50;;;;;;;36.30;23.98;;;;;;;-4.07;100.00;100914.50;5032447;28;20036;-63
2022/03/05 06:25:19;;;;;;;40.05;24.10;;;;;;;-4.05;100.00;100918.81;5026155;28;20493;-63
2022/03/05 06:27:44;;;;;;;40.30;23.15;;;;;;;-4.08;100.00;100923.91;5030652;28;20032;-63
2022/03/05 06:30:11;;;;;;;39.75;23.20;;;;;;;-4.13;100.00;100921.28;5027383;28;20021;-62
2022/03/05 06:32:37;;;;;;;38.42;24.05;;;;;;;-4.11;100.00;100923.84;5026243;28;20025;-63
2022/03/05 06:35:05;;;;;;;37.65;24.33;;;;;;;-4.10;100.00;100927.28;5021350;28;20246;-63
2022/03/05 06:37:30;;;;;;;38.40;24.83;;;;;;;-4.07;100.00;100928.19;5017546;28;20028;-62
2022/03/05 06:39:56;;;;;;;42.75;25.08;;;;;;;-4.04;100.00;100940.22;5016531;28;20787;-63
2022/03/05 06:42:21;;;;;;;37.13;24.20;;;;;;;-4.04;100.00;100935.94;5022553;28;20063;-62
2022/03/05 06:44:46;;;;;;;39.20;23.85;;;;;;;-4.02;100.00;100934.25;5030414;28;20064;-62
2022/03/05 06:47:12;;;;;;;39.05;24.77;;;;;;;-3.98;100.00;100930.91;5026440;28;20136;-63
2022/03/05 06:49:38;;;;;;;39.63;25.02;;;;;;;-3.85;100.00;100934.56;5029873;28;20027;-63
2022/03/05 06:52:03;;;;;;;42.67;26.30;;;;;;;-3.79;100.00;100926.97;5025275;28;20039;-62
2022/03/05 06:54:29;;;;;;;41.35;25.52;;;;;;;-3.64;100.00;100929.75;5028566;28;20150;-62
2022/03/05 06:56:54;;;;;;;38.72;25.38;;;;;;;-3.61;100.00;100922.09;5019650;28;20042;-63
2022/03/05 06:59:19;;;;;;;40.10;24.05;;;;;;;-3.61;100.00;100919.53;5026415;28;20028;-63
2022/03/05 07:01:45;;;;;;;39.55;23.90;;;;;;;-3.61;100.00;100914.41;5033249;28;20095;-62
2022/03/05 07:04:10;;;;;;;40.42;24.65;;;;;;;-3.50;100.00;100930.84;5026532;28;20870;-64
2022/03/05 07:06:37;;;;;;;39.70;26.40;;;;;;;-3.46;100.00;100935.19;5012244;28;20783;-63
2022/03/05 07:09:03;;;;;;;39.70;26.63;;;;;;;-3.38;100.00;100931.00;5020628;28;20028;-62
2022/03/05 07:11:29;;;;;;;39.42;26.40;;;;;;;-3.38;100.00;100917.31;5017594;28;20032;-62
2022/03/05 07:13:54;;;;;;;39.83;25.95;;;;;;;-3.24;100.00;100942.34;5020366;28;20140;-62
2022/03/05 07:16:20;;;;;;;34.88;25.52;;;;;;;-3.16;100.00;100935.63;5025580;28;20811;-62
2022/03/05 07:18:45;;;;;;;46.13;27.38;;;;;;;-3.08;100.00;100937.44;5032533;28;20059;-62
2022/03/05 07:21:10;;;;;;;42.00;27.05;;;;;;;-2.99;100.00;100935.84;5030039;28;20092;-63
2022/03/05 07:23:36;;;;;;;46.70;29.50;;;;;;;-2.91;100.00;100938.53;5030495;28;20028;-63
2022/03/05 07:26:01;;;;;;;50.47;30.80;;;;;;;-2.80;100.00;100944.63;5032816;28;20028;-62
2022/03/05 07:28:27;;;;;;;45.00;29.50;;;;;;;-2.75;100.00;100936.16;5034554;28;20036;-62
2022/03/05 07:30:54;;;;;;;47.63;31.17;;;;;;;-2.59;100.00;100950.03;5031424;28;20033;-64
2022/03/05 07:33:19;;;;;;;44.20;28.00;;;;;;;-2.47;100.00;100954.47;5010791;28;20174;-63
2022/03/05 07:35:45;;;;;;;43.13;28.10;;;;;;;-2.38;100.00;100952.88;5008283;28;20058;-62
2022/03/05 07:38:10;;;;;;;47.92;28.85;;;;;;;-2.34;100.00;100946.91;5023993;28;20047;-63
2022/03/05 07:40:36;;;;;;;47.50;29.48;;;;;;;-2.20;100.00;100963.34;5025964;28;20041;-63
2022/03/05 07:43:01;;;;;;;41.42;28.48;;;;;;;-2.10;100.00;100964.31;5023594;28;20029;-63
2022/03/05 07:45:26;;;;;;;46.72;28.67;;;;;;;-1.99;100.00;100969.56;5026726;28;20779;-63
2022/03/05 07:47:52;;;;;;;44.05;30.85;;;;;;;-1.90;100.00;100961.94;5027911;28;20039;-62
2022/03/05 07:50:17;;;;;;;49.05;32.75;;;;;;;-1.96;100.00;100941.28;5025200;28;20021;-63
2022/03/05 07:52:43;;;;;;;53.15;31.75;;;;;;;-1.71;100.00;100976.69;5028532;28;20450;-63
2022/03/05 07:55:09;;;;;;;53.15;33.42;;;;;;;-1.59;100.00;100979.38;5029274;28;20061;-63
2022/03/05 07:57:35;;;;;;;51.05;30.48;;;;;;;-1.48;100.00;100985.47;5029202;28;20823;-62
2022/03/05 08:00:00;;;;;;;50.20;29.63;;;;;;;-1.38;100.00;100978.66;5033085;28;20032;-62
2022/03/05 08:02:26;;;;;;;45.13;29.80;;;;;;;-1.28;100.00;100983.03;5030127;28;20915;-63
2022/03/05 08:04:51;;;;;;;49.85;30.27;;;;;;;-1.17;100.00;100984.84;5030322;28;20053;-63
2022/03/05 08:07:17;;;;;;;46.50;29.55;;;;;;;-1.03;100.00;100987.50;5033708;28;20056;-63
2022/03/05 08:09:43;;;;;;;43.95;27.77;;;;;;;-0.89;100.00;100987.59;5031143;28;20082;-63
2022/03/05 08:12:10;;;;;;;46.10;28.98;;;;;;;-0.75;100.00;100993.69;5031067;28;20029;-63
2022/03/05 08:14:37;;;;;;;41.22;27.30;;;;;;;-0.65;100.00;100985.13;5061850;28;20025;-63
2022/03/05 08:17:02;;;;;;;47.53;27.65;;;;;;;-0.51;100.00;100996.38;5034139;28;20036;-63
2022/03/05 08:19:28;;;;;;;40.50;26.55;;;;;;;-0.40;100.00;100992.09;5029197;28;20691;-63
2022/03/05 08:21:53;;;;;;;39.38;24.65;;;;;;;-0.24;100.00;100982.72;5024383;28;20039;-63
2022/03/05 08:24:18;;;;;;;37.10;23.70;;;;;;;0.00;100.00;100985.38;5026987;28;20025;-63
2022/03/05 08:26:44;;;;;;;39.25;23.85;;;;;;;0.22;100.00;100991.41;5029309;28;20040;-63
2022/03/05 08:29:09;;;;;;;31.30;21.77;;;;;;;0.35;100.00;100990.56;5029514;28;20025;-63
2022/03/05 08:31:34;;;;;;;35.53;23.23;;;;;;;0.49;100.00;101000.06;5030055;28;20808;-63
2022/03/05 08:34:03;;;;;;;34.72;21.77;;;;;;;0.65;100.00;100995.72;5027226;28;20044;-63
2022/03/05 08:36:29;;;;;;;32.28;20.65;;;;;;;0.76;100.00;100993.13;5029832;28;20839;-63
2022/03/05 08:38:55;;;;;;;33.88;21.48;;;;;;;0.90;100.00;100997.44;5031151;28;20029;-63
2022/03/05 08:41:20;;;;;;;30.65;20.65;;;;;;;1.06;100.00;100994.81;5028815;28;20032;-63
2022/03/05 08:43:45;;;;;;;38.85;21.30;;;;;;;1.19;100.00;100989.59;5025805;28;20025;-63
2022/03/05 08:46:11;;;;;;;32.88;21.02;;;;;;;1.32;100.00;100985.28;5026340;28;20020;-64
2022/03/05 08:48:36;;;;;;;33.53;21.40;;;;;;;1.40;100.00;100988.69;5027602;28;20082;-63
2022/03/05 08:51:02;;;;;;;29.50;20.77;;;;;;;1.58;100.00;100992.94;5021791;28;20604;-63
2022/03/05 08:53:28;;;;;;;33.92;20.73;;;;;;;1.73;100.00;100978.19;5024411;28;20829;-63
2022/03/05 08:55:54;;;;;;;34.20;19.75;;;;;;;1.95;100.00;100987.56;5024215;28;20113;-63
2022/03/05 08:58:20;;;;;;;33.33;20.55;;;;;;;2.13;100.00;100993.53;5022354;28;20840;-64
2022/03/05 09:00:46;;;;;;;28.30;19.40;;;;;;;2.22;100.00;100988.25;5021901;28;20086;-63
2022/03/05 09:03:12;;;;;;;29.38;18.83;;;;;;;2.31;100.00;100989.06;5022038;28;20998;-63
2022/03/05 09:05:37;;;;;;;34.00;22.05;;;;;;;2.40;100.00;100991.56;5017212;28;20029;-64
2022/03/05 09:08:03;;;;;;;32.90;19.88;;;;;;;2.51;100.00;100991.50;5021335;28;21051;-63
2022/03/05 09:10:29;;;;;;;33.42;19.10;;;;;;;2.60;100.00;100988.84;5015832;28;20225;-64
2022/03/05 09:12:54;;;;;;;29.17;19.60;;;;;;;2.70;100.00;101000.00;5026891;28;20513;-64
2022/03/05 09:15:20;;;;;;;31.30;19.15;;;;;;;2.76;100.00;100993.03;5025968;28;20036;-63
2022/03/05 09:17:45;;;;;;;33.42;21.40;;;;;;;2.83;100.00;100996.41;5029806;28;20059;-64
2022/03/05 09:20:11;;;;;;;29.55;18.70;;;;;;;2.89;100.00;100989.44;5026576;28;20083;-64
2022/03/05 09:22:37;;;;;;;29.73;18.77;;;;;;;2.97;100.00;100981.59;5021207;28;20873;-63
2022/03/05 09:25:03;;;;;;;33.17;18.13;;;;;;;3.13;100.00;100993.53;5019773;28;20562;-64
2022/03/05 09:27:29;;;;;;;29.80;18.10;;;;;;;3.20;100.00;100976.16;5020362;28;20064;-63
2022/03/05 09:29:56;;;;;;;31.05;19.08;;;;;;;3.32;100.00;100983.78;5032439;28;20056;-64
2022/03/05 09:32:21;;;;;;;36.40;20.08;;;;;;;3.47;100.00;100988.81;5022519;28;20183;-64
2022/03/05 09:34:47;;;;;;;30.73;19.77;;;;;;;3.56;100.00;100988.69;5022620;28;20029;-64
2022/03/05 09:37:12;;;;;;;24.63;16.98;;;;;;;3.64;100.00;100992.06;5024150;28;20036;-64
2022/03/05 09:39:38;;;;;;;32.35;18.10;;;;;;;3.81;100.00;100977.13;5022508;28;20122;-64
2022/03/05 09:42:06;;;;;;;36.08;18.95;;;;;;;3.94;100.00;100976.06;5022584;28;20082;-64
2022/03/05 09:44:32;;;;;;;37.30;20.65;;;;;;;4.13;100.00;100992.25;5030612;28;20040;-64
2022/03/05 09:47:00;;;;;;;27.27;19.45;;;;;;;3.99;100.00;100953.47;5025150;28;20035;-64
2022/03/05 09:49:27;;;;;;;30.17;19.23;;;;;;;4.29;100.00;100992.91;5024357;28;20016;-64
2022/03/05 09:51:53;;;;;;;32.10;19.85;;;;;;;4.41;100.00;100990.13;5022535;28;20095;-64
2022/03/05 09:54:19;;;;;;;24.02;18.55;;;;;;;4.45;100.00;100984.00;5019475;28;20920;-64
2022/03/05 09:56:44;;;;;;;38.30;20.95;;;;;;;4.53;100.00;100987.31;5020027;28;20025;-64
2022/03/05 09:59:10;;;;;;;30.45;20.65;;;;;;;4.57;100.00;100973.38;5021379;28;20021;-64
2022/03/05 10:01:36;;;;;;;34.28;20.42;;;;;;;4.58;100.00;100981.16;5022652;28;20036;-64
2022/03/05 10:04:02;;;;;;;31.38;18.50;;;;;;;4.61;100.00;100985.44;5015716;28;20817;-64
2022/03/05 10:06:28;;;;;;;26.02;17.88;;;;;;;4.79;100.00;100989.50;5015205;28;20031;-64
2022/03/05 10:08:55;;;;;;;30.33;19.67;;;;;;;4.88;100.00;100990.19;5017455;28;20053;-64
2022/03/05 10:11:24;;;;;;;31.00;19.35;;;;;;;4.93;100.00;100991.00;5019145;28;20900;-64
2022/03/05 10:13:50;;;;;;;28.58;19.20;;;;;;;5.20;100.00;100992.22;5016626;28;20063;-64
2022/03/05 10:16:24;;;;;;;30.40;19.75;;;;;;;5.27;100.00;100987.75;5020576;28;20879;-64
2022/03/05 10:18:50;;;;;;;31.25;18.77;;;;;;;5.25;100.00;100986.91;5025660;28;20087;-64
2022/03/05 10:21:16;;;;;;;26.75;18.70;;;;;;;5.30;100.00;100987.69;5021192;28;20033;-64
2022/03/05 10:23:47;;;;;;;29.83;19.73;;;;;;;5.39;100.00;100992.72;5015795;28;20393;-64
2022/03/05 10:26:14;;;;;;;33.10;18.40;;;;;;;5.43;100.00;100983.97;5018367;28;20025;-64
2022/03/05 10:28:40;;;;;;;23.73;18.05;;;;;;;5.47;100.00;100975.19;5022537;28;20025;-64
2022/03/05 10:31:14;;;;;;;27.85;18.50;;;;;;;5.52;100.00;100973.34;5020885;28;20025;-64
2022/03/05 10:33:45;;;;;;;29.55;18.42;;;;;;;5.73;100.00;100974.66;5025360;28;20074;-64
2022/03/05 10:36:21;;;;;;;26.15;17.52;;;;;;;5.88;100.00;100975.19;5010655;28;20048;-64
2022/03/05 10:38:53;;;;;;;35.33;18.15;;;;;;;5.98;100.00;100974.09;5009356;28;20920;-64
2022/03/05 10:41:40;;;;;;;28.63;19.27;;;;;;;6.00;100.00;100971.47;5013980;28;20028;-64
2022/03/05 10:44:15;;;;;;;29.38;18.10;;;;;;;5.86;100.00;100937.88;5015929;28;20029;-64
2022/03/05 10:46:48;;;;;;;27.08;16.65;;;;;;;6.16;100.00;100971.09;5011098;28;20025;-64
2022/03/05 10:49:20;;;;;;;27.15;16.15;;;;;;;6.37;94.89;100966.28;5012910;28;20021;-64
2022/03/05 10:51:52;;;;;;;26.67;16.05;;;;;;;6.31;98.11;100950.75;5012350;28;20020;-64
2022/03/05 10:54:29;;;;;;;26.35;18.63;;;;;;;6.51;95.22;100965.06;5008478;28;20025;-64
2022/03/05 10:57:14;;;;;;;29.08;18.83;;;;;;;6.62;92.01;100968.22;5012443;28;20166;-64
2022/03/05 10:59:42;;;;;;;25.45;16.90;;;;;;;6.84;92.56;100958.13;5018560;28;20033;-64
2022/03/05 11:02:08;;;;;;;24.85;17.00;;;;;;;7.13;91.31;100955.56;5008425;28;20854;-64